sensor_id;sensor_type;location;lat;lon;timestamp;pressure;altitude;pressure_sealevel;temperature;humidity
73338;BME280;61575;49.908;35.556;2023-04-28T00:00:06;98569.34;;;13.00;91.52
73338;BME280;61575;49.908;35.556;2023-04-28T00:03:08;98568.72;;;12.98;91.83
73338;BME280;61575;49.908;35.556;2023-04-28T00:06:10;98574.13;;;12.98;92.01
73338;BME280;61575;49.908;35.556;2023-04-28T00:09:12;98571.22;;;12.99;92.20
73338;BME280;61575;49.908;35.556;2023-04-28T00:12:14;98578.25;;;13.00;92.61
73338;BME280;61575;49.908;35.556;2023-04-28T00:15:16;98576.19;;;13.02;92.92
73338;BME280;61575;49.908;35.556;2023-04-28T00:18:19;98570.59;;;13.04;92.51
73338;BME280;61575;49.908;35.556;2023-04-28T00:21:21;98580.53;;;13.03;92.07
73338;BME280;61575;49.908;35.556;2023-04-28T00:24:23;98591.53;;;13.02;92.41
73338;BME280;61575;49.908;35.556;2023-04-28T00:27:24;98578.69;;;12.97;92.06
73338;BME280;61575;49.908;35.556;2023-04-28T00:30:28;98584.69;;;12.93;91.91
73338;BME280;61575;49.908;35.556;2023-04-28T00:33:30;98592.78;;;12.86;91.48
73338;BME280;61575;49.908;35.556;2023-04-28T00:36:32;98591.31;;;12.77;91.72
73338;BME280;61575;49.908;35.556;2023-04-28T00:39:34;98585.53;;;12.73;91.63
73338;BME280;61575;49.908;35.556;2023-04-28T00:42:36;98594.84;;;12.64;91.80
73338;BME280;61575;49.908;35.556;2023-04-28T00:45:38;98591.94;;;12.59;90.98
73338;BME280;61575;49.908;35.556;2023-04-28T00:48:41;98591.50;;;12.49;90.84
73338;BME280;61575;49.908;35.556;2023-04-28T00:51:43;98591.69;;;12.41;90.21
73338;BME280;61575;49.908;35.556;2023-04-28T00:54:45;98598.53;;;12.37;91.13
73338;BME280;61575;49.908;35.556;2023-04-28T00:57:48;98599.75;;;12.28;90.42
73338;BME280;61575;49.908;35.556;2023-04-28T01:00:50;98608.59;;;12.15;90.50
73338;BME280;61575;49.908;35.556;2023-04-28T01:03:52;98609.41;;;12.09;90.55
73338;BME280;61575;49.908;35.556;2023-04-28T01:06:55;98607.56;;;12.09;91.89
73338;BME280;61575;49.908;35.556;2023-04-28T01:09:58;98604.47;;;12.12;93.69
73338;BME280;61575;49.908;35.556;2023-04-28T01:13:04;98605.94;;;12.22;94.02
73338;BME280;61575;49.908;35.556;2023-04-28T01:16:07;98609.47;;;12.29;93.69
73338;BME280;61575;49.908;35.556;2023-04-28T01:19:16;98608.88;;;12.33;93.75
73338;BME280;61575;49.908;35.556;2023-04-28T01:22:21;98610.53;;;12.34;94.74
73338;BME280;61575;49.908;35.556;2023-04-28T01:25:23;98617.59;;;12.42;94.96
73338;BME280;61575;49.908;35.556;2023-04-28T01:28:25;98612.41;;;12.47;94.99
73338;BME280;61575;49.908;35.556;2023-04-28T01:31:27;98614.69;;;12.50;95.43
73338;BME280;61575;49.908;35.556;2023-04-28T01:34:32;98623.00;;;12.55;94.82
73338;BME280;61575;49.908;35.556;2023-04-28T01:37:33;98614.50;;;12.58;95.36
73338;BME280;61575;49.908;35.556;2023-04-28T01:40:35;98616.78;;;12.61;95.00
73338;BME280;61575;49.908;35.556;2023-04-28T01:43:37;98613.06;;;12.62;94.80
73338;BME280;61575;49.908;35.556;2023-04-28T01:46:39;98611.81;;;12.65;94.98
73338;BME280;61575;49.908;35.556;2023-04-28T01:49:41;98609.75;;;12.67;94.70
73338;BME280;61575;49.908;35.556;2023-04-28T01:52:43;98615.34;;;12.65;94.08
73338;BME280;61575;49.908;35.556;2023-04-28T01:55:45;98611.81;;;12.65;94.09
73338;BME280;61575;49.908;35.556;2023-04-28T01:58:49;98609.34;;;12.63;93.75
73338;BME280;61575;49.908;35.556;2023-04-28T02:01:52;98608.50;;;12.63;93.85
73338;BME280;61575;49.908;35.556;2023-04-28T02:04:54;98620.31;;;12.55;95.66
73338;BME280;61575;49.908;35.556;2023-04-28T02:07:56;98627.78;;;12.60;95.42
73338;BME280;61575;49.908;35.556;2023-04-28T02:10:58;98628.59;;;12.60;95.83
73338;BME280;61575;49.908;35.556;2023-04-28T02:14:02;98628.81;;;12.65;95.27
73338;BME280;61575;49.908;35.556;2023-04-28T02:17:04;98630.47;;;12.60;95.81
73338;BME280;61575;49.908;35.556;2023-04-28T02:20:07;98641.44;;;12.58;95.86
73338;BME280;61575;49.908;35.556;2023-04-28T02:23:09;98644.34;;;12.63;95.34
73338;BME280;61575;49.908;35.556;2023-04-28T02:26:11;98642.69;;;12.62;94.58
73338;BME280;61575;49.908;35.556;2023-04-28T02:29:13;98655.53;;;12.60;94.75
73338;BME280;61575;49.908;35.556;2023-04-28T02:32:15;98652.22;;;12.58;95.14
73338;BME280;61575;49.908;35.556;2023-04-28T02:35:17;98656.16;;;12.56;94.93
73338;BME280;61575;49.908;35.556;2023-04-28T02:38:19;98652.81;;;12.54;94.56
73338;BME280;61575;49.908;35.556;2023-04-28T02:41:21;98661.53;;;12.56;94.80
73338;BME280;61575;49.908;35.556;2023-04-28T02:44:23;98664.00;;;12.50;94.68
73338;BME280;61575;49.908;35.556;2023-04-28T02:47:25;98663.81;;;12.52;94.56
73338;BME280;61575;49.908;35.556;2023-04-28T02:50:27;98669.81;;;12.54;94.50
73338;BME280;61575;49.908;35.556;2023-04-28T02:53:29;98675.59;;;12.51;94.47
73338;BME280;61575;49.908;35.556;2023-04-28T02:56:32;98684.31;;;12.53;94.53
73338;BME280;61575;49.908;35.556;2023-04-28T02:59:34;98684.53;;;12.58;94.13
73338;BME280;61575;49.908;35.556;2023-04-28T03:02:37;98697.59;;;12.61;93.89
73338;BME280;61575;49.908;35.556;2023-04-28T03:05:39;98695.13;;;12.66;93.72
73338;BME280;61575;49.908;35.556;2023-04-28T03:08:41;98692.03;;;12.69;93.50
73338;BME280;61575;49.908;35.556;2023-04-28T03:11:43;98693.69;;;12.70;93.56
73338;BME280;61575;49.908;35.556;2023-04-28T03:14:44;98696.81;;;12.74;93.41
73338;BME280;61575;49.908;35.556;2023-04-28T03:17:46;98702.63;;;12.77;93.25
73338;BME280;61575;49.908;35.556;2023-04-28T03:20:49;98704.28;;;12.85;93.04
73338;BME280;61575;49.908;35.556;2023-04-28T03:23:51;98700.97;;;12.90;92.78
73338;BME280;61575;49.908;35.556;2023-04-28T03:26:53;98701.00;;;12.96;92.53
73338;BME280;61575;49.908;35.556;2023-04-28T03:29:55;98706.38;;;13.03;92.26
73338;BME280;61575;49.908;35.556;2023-04-28T03:32:57;98702.25;;;13.07;92.31
73338;BME280;61575;49.908;35.556;2023-04-28T03:35:59;98709.31;;;13.08;92.27
73338;BME280;61575;49.908;35.556;2023-04-28T03:39:01;98713.88;;;13.07;92.60
73338;BME280;61575;49.908;35.556;2023-04-28T03:42:05;98711.59;;;13.11;92.28
73338;BME280;61575;49.908;35.556;2023-04-28T03:45:19;98711.59;;;13.11;92.65
73338;BME280;61575;49.908;35.556;2023-04-28T03:48:21;98718.22;;;13.15;92.38
73338;BME280;61575;49.908;35.556;2023-04-28T03:51:23;98720.50;;;13.11;92.91
73338;BME280;61575;49.908;35.556;2023-04-28T03:54:25;98716.16;;;13.17;92.59
73338;BME280;61575;49.908;35.556;2023-04-28T03:57:27;98712.00;;;13.21;92.65
73338;BME280;61575;49.908;35.556;2023-04-28T04:00:30;98719.06;;;13.15;92.86
73338;BME280;61575;49.908;35.556;2023-04-28T04:03:32;98723.41;;;13.10;92.71
73338;BME280;61575;49.908;35.556;2023-04-28T04:06:34;98725.47;;;13.08;92.76
73338;BME280;61575;49.908;35.556;2023-04-28T04:09:36;98738.13;;;13.01;92.79
73338;BME280;61575;49.908;35.556;2023-04-28T04:12:39;98737.28;;;13.07;92.85
73338;BME280;61575;49.908;35.556;2023-04-28T04:15:41;98733.16;;;13.17;92.48
73338;BME280;61575;49.908;35.556;2023-04-28T04:18:43;98735.66;;;13.19;91.92
73338;BME280;61575;49.908;35.556;2023-04-28T04:21:52;98740.84;;;13.14;92.12
73338;BME280;61575;49.908;35.556;2023-04-28T04:24:54;98734.19;;;13.23;91.97
73338;BME280;61575;49.908;35.556;2023-04-28T04:27:57;98743.75;;;13.26;91.73
73338;BME280;61575;49.908;35.556;2023-04-28T04:30:59;98747.91;;;13.28;91.67
73338;BME280;61575;49.908;35.556;2023-04-28T04:34:01;98759.97;;;13.32;91.86
73338;BME280;61575;49.908;35.556;2023-04-28T04:37:03;98754.56;;;13.39;91.53
73338;BME280;61575;49.908;35.556;2023-04-28T04:40:06;98754.56;;;13.45;91.73
73338;BME280;61575;49.908;35.556;2023-04-28T04:43:14;98751.47;;;13.55;91.99
73338;BME280;61575;49.908;35.556;2023-04-28T04:46:21;98763.28;;;13.61;91.34
73338;BME280;61575;49.908;35.556;2023-04-28T04:49:23;98769.72;;;13.66;91.27
73338;BME280;61575;49.908;35.556;2023-04-28T04:52:25;98767.66;;;13.68;90.69
73338;BME280;61575;49.908;35.556;2023-04-28T04:55:28;98768.69;;;13.80;90.00
73338;BME280;61575;49.908;35.556;2023-04-28T04:58:31;98764.31;;;13.93;89.69
73338;BME280;61575;49.908;35.556;2023-04-28T05:01:53;98764.50;;;14.04;89.13
73338;BME280;61575;49.908;35.556;2023-04-28T05:04:55;98775.69;;;14.15;88.87
73338;BME280;61575;49.908;35.556;2023-04-28T05:08:14;98773.19;;;14.26;88.39
73338;BME280;61575;49.908;35.556;2023-04-28T05:11:16;98776.91;;;14.32;87.42
73338;BME280;61575;49.908;35.556;2023-04-28T05:14:18;98778.53;;;14.46;87.88
73338;BME280;61575;49.908;35.556;2023-04-28T05:17:20;98769.41;;;14.47;86.91
73338;BME280;61575;49.908;35.556;2023-04-28T05:20:23;98778.13;;;14.49;86.98
73338;BME280;61575;49.908;35.556;2023-04-28T05:23:25;98766.50;;;14.49;86.44
73338;BME280;61575;49.908;35.556;2023-04-28T05:26:27;98771.69;;;14.50;86.21
73338;BME280;61575;49.908;35.556;2023-04-28T05:29:32;98767.75;;;14.39;86.35
73338;BME280;61575;49.908;35.556;2023-04-28T05:32:36;98759.00;;;14.44;86.42
73338;BME280;61575;49.908;35.556;2023-04-28T05:35:38;98760.81;;;14.57;86.06
73338;BME280;61575;49.908;35.556;2023-04-28T05:38:40;98750.16;;;14.68;86.00
73338;BME280;61575;49.908;35.556;2023-04-28T05:41:42;98748.22;;;14.82;85.83
73338;BME280;61575;49.908;35.556;2023-04-28T05:44:44;98758.38;;;14.87;84.94
73338;BME280;61575;49.908;35.556;2023-04-28T05:47:46;98748.28;;;14.69;85.08
73338;BME280;61575;49.908;35.556;2023-04-28T05:50:48;98762.59;;;14.76;85.12
73338;BME280;61575;49.908;35.556;2023-04-28T05:53:51;98756.25;;;14.95;84.96
73338;BME280;61575;49.908;35.556;2023-04-28T05:56:54;98764.13;;;15.03;84.54
73338;BME280;61575;49.908;35.556;2023-04-28T05:59:57;98757.84;;;15.09;83.78
73338;BME280;61575;49.908;35.556;2023-04-28T06:02:59;98771.88;;;14.93;82.66
73338;BME280;61575;49.908;35.556;2023-04-28T06:06:01;98778.81;;;15.14;83.41
73338;BME280;61575;49.908;35.556;2023-04-28T06:09:07;98779.03;;;15.13;83.00
73338;BME280;61575;49.908;35.556;2023-04-28T06:12:09;98792.78;;;15.11;83.50
73338;BME280;61575;49.908;35.556;2023-04-28T06:15:11;98799.75;;;14.94;83.21
73338;BME280;61575;49.908;35.556;2023-04-28T06:18:13;98804.88;;;15.08;83.41
73338;BME280;61575;49.908;35.556;2023-04-28T06:21:17;98796.72;;;15.15;82.98
73338;BME280;61575;49.908;35.556;2023-04-28T06:24:18;98797.38;;;15.10;83.13
73338;BME280;61575;49.908;35.556;2023-04-28T06:27:22;98796.84;;;14.89;83.64
73338;BME280;61575;49.908;35.556;2023-04-28T06:30:24;98801.25;;;14.83;83.97
73338;BME280;61575;49.908;35.556;2023-04-28T06:33:26;98807.72;;;14.75;84.50
73338;BME280;61575;49.908;35.556;2023-04-28T06:36:28;98803.16;;;14.69;85.53
73338;BME280;61575;49.908;35.556;2023-04-28T06:39:30;98811.91;;;14.71;85.66
73338;BME280;61575;49.908;35.556;2023-04-28T06:42:32;98814.25;;;14.55;86.79
73338;BME280;61575;49.908;35.556;2023-04-28T06:45:43;98817.72;;;14.68;86.50
73338;BME280;61575;49.908;35.556;2023-04-28T06:48:45;98811.16;;;14.44;87.46
73338;BME280;61575;49.908;35.556;2023-04-28T06:51:50;98818.38;;;14.64;87.36
73338;BME280;61575;49.908;35.556;2023-04-28T06:54:52;98801.31;;;14.70;87.85
73338;BME280;61575;49.908;35.556;2023-04-28T06:57:54;98784.03;;;14.71;87.78
73338;BME280;61575;49.908;35.556;2023-04-28T07:00:56;98779.69;;;14.63;89.55
73338;BME280;61575;49.908;35.556;2023-04-28T07:03:58;98784.84;;;14.78;88.94
73338;BME280;61575;49.908;35.556;2023-04-28T07:07:00;98788.31;;;14.92;88.14
73338;BME280;61575;49.908;35.556;2023-04-28T07:10:02;98787.94;;;14.82;87.99
73338;BME280;61575;49.908;35.556;2023-04-28T07:13:04;98791.06;;;14.78;88.47
73338;BME280;61575;49.908;35.556;2023-04-28T07:16:07;98791.94;;;14.72;88.65
73338;BME280;61575;49.908;35.556;2023-04-28T07:19:09;98799.91;;;14.54;88.37
73338;BME280;61575;49.908;35.556;2023-04-28T07:22:11;98790.38;;;14.45;88.91
73338;BME280;61575;49.908;35.556;2023-04-28T07:25:13;98787.28;;;14.48;89.51
73338;BME280;61575;49.908;35.556;2023-04-28T07:28:15;98786.22;;;14.42;89.01
73338;BME280;61575;49.908;35.556;2023-04-28T07:31:17;98779.38;;;14.40;89.28
73338;BME280;61575;49.908;35.556;2023-04-28T07:34:19;98774.16;;;14.45;88.97
73338;BME280;61575;49.908;35.556;2023-04-28T07:37:21;98771.44;;;14.52;89.07
73338;BME280;61575;49.908;35.556;2023-04-28T07:40:24;98770.00;;;14.42;88.61
73338;BME280;61575;49.908;35.556;2023-04-28T07:43:26;98774.59;;;14.42;88.78
73338;BME280;61575;49.908;35.556;2023-04-28T07:46:28;98772.78;;;14.23;88.89
73338;BME280;61575;49.908;35.556;2023-04-28T07:49:30;98772.34;;;14.26;89.10
73338;BME280;61575;49.908;35.556;2023-04-28T07:52:33;98780.47;;;14.19;89.16
73338;BME280;61575;49.908;35.556;2023-04-28T07:55:35;98774.84;;;14.27;89.02
73338;BME280;61575;49.908;35.556;2023-04-28T07:58:37;98774.84;;;14.21;88.76
73338;BME280;61575;49.908;35.556;2023-04-28T08:01:39;98778.16;;;14.23;88.44
73338;BME280;61575;49.908;35.556;2023-04-28T08:04:41;98795.19;;;14.23;88.75
73338;BME280;61575;49.908;35.556;2023-04-28T08:07:44;98819.72;;;14.15;88.97
73338;BME280;61575;49.908;35.556;2023-04-28T08:10:45;98851.72;;;14.25;88.78
73338;BME280;61575;49.908;35.556;2023-04-28T08:13:48;98878.09;;;13.96;88.66
73338;BME280;61575;49.908;35.556;2023-04-28T08:16:50;98881.22;;;14.20;88.55
73338;BME280;61575;49.908;35.556;2023-04-28T08:19:52;98878.28;;;14.28;88.58
73338;BME280;61575;49.908;35.556;2023-04-28T08:22:54;98883.91;;;14.33;88.17
73338;BME280;61575;49.908;35.556;2023-04-28T08:25:57;98878.50;;;14.39;88.28
73338;BME280;61575;49.908;35.556;2023-04-28T08:28:59;98865.81;;;14.40;88.79
73338;BME280;61575;49.908;35.556;2023-04-28T08:32:01;98866.84;;;14.45;88.32
73338;BME280;61575;49.908;35.556;2023-04-28T08:35:03;98868.09;;;14.36;87.96
73338;BME280;61575;49.908;35.556;2023-04-28T08:38:06;98869.34;;;14.34;87.97
73338;BME280;61575;49.908;35.556;2023-04-28T08:41:08;98843.38;;;14.33;88.41
73338;BME280;61575;49.908;35.556;2023-04-28T08:44:10;98841.53;;;14.20;88.87
73338;BME280;61575;49.908;35.556;2023-04-28T08:47:13;98852.53;;;14.19;88.88
73338;BME280;61575;49.908;35.556;2023-04-28T08:50:22;98849.66;;;14.13;89.42
73338;BME280;61575;49.908;35.556;2023-04-28T08:53:25;98852.13;;;14.15;89.46
73338;BME280;61575;49.908;35.556;2023-04-28T08:56:31;98865.44;;;14.03;89.80
73338;BME280;61575;49.908;35.556;2023-04-28T08:59:37;98873.31;;;14.05;89.83
73338;BME280;61575;49.908;35.556;2023-04-28T09:02:39;98879.34;;;14.07;89.71
73338;BME280;61575;49.908;35.556;2023-04-28T09:05:44;98879.34;;;14.13;89.43
73338;BME280;61575;49.908;35.556;2023-04-28T09:08:46;98860.03;;;14.10;89.73
73338;BME280;61575;49.908;35.556;2023-04-28T09:12:02;98857.97;;;14.05;89.76
73338;BME280;61575;49.908;35.556;2023-04-28T09:15:05;98856.28;;;14.04;89.64
73338;BME280;61575;49.908;35.556;2023-04-28T09:18:13;98860.88;;;14.04;90.13
73338;BME280;61575;49.908;35.556;2023-04-28T09:21:15;98858.59;;;14.01;89.74
73338;BME280;61575;49.908;35.556;2023-04-28T09:24:32;98866.69;;;13.94;90.66
73338;BME280;61575;49.908;35.556;2023-04-28T09:27:34;98867.94;;;13.98;90.48
73338;BME280;61575;49.908;35.556;2023-04-28T09:30:39;98865.00;;;14.00;90.32
73338;BME280;61575;49.908;35.556;2023-04-28T09:33:56;98871.03;;;14.02;90.89
73338;BME280;61575;49.908;35.556;2023-04-28T09:36:58;98871.25;;;14.00;90.87
73338;BME280;61575;49.908;35.556;2023-04-28T09:40:08;98869.16;;;13.96;90.91
73338;BME280;61575;49.908;35.556;2023-04-28T09:43:30;98856.50;;;13.96;90.97
73338;BME280;61575;49.908;35.556;2023-04-28T09:46:32;98854.22;;;13.93;91.72
73338;BME280;61575;49.908;35.556;2023-04-28T09:49:52;98852.75;;;13.84;91.78
73338;BME280;61575;49.908;35.556;2023-04-28T09:52:56;98862.72;;;13.77;92.15
73338;BME280;61575;49.908;35.556;2023-04-28T09:56:01;98856.69;;;13.55;92.04
73338;BME280;61575;49.908;35.556;2023-04-28T09:59:04;98861.47;;;13.60;92.57
73338;BME280;61575;49.908;35.556;2023-04-28T10:02:07;98862.91;;;13.62;92.66
73338;BME280;61575;49.908;35.556;2023-04-28T10:05:30;98857.06;;;13.39;93.20
73338;BME280;61575;49.908;35.556;2023-04-28T10:08:32;98859.16;;;13.50;92.11
73338;BME280;61575;49.908;35.556;2023-04-28T10:11:35;98866.13;;;13.25;93.07
73338;BME280;61575;49.908;35.556;2023-04-28T10:14:38;98879.81;;;13.30;93.08
73338;BME280;61575;49.908;35.556;2023-04-28T10:17:41;98883.13;;;13.25;92.86
73338;BME280;61575;49.908;35.556;2023-04-28T10:20:48;98882.66;;;13.08;94.39
73338;BME280;61575;49.908;35.556;2023-04-28T10:24:09;98877.25;;;13.08;94.83
73338;BME280;61575;49.908;35.556;2023-04-28T10:27:16;98876.22;;;13.09;94.07
73338;BME280;61575;49.908;35.556;2023-04-28T10:30:19;98872.25;;;12.99;94.78
73338;BME280;61575;49.908;35.556;2023-04-28T10:33:29;98871.88;;;13.08;93.92
73338;BME280;61575;49.908;35.556;2023-04-28T10:36:49;98863.81;;;13.15;92.99
73338;BME280;61575;49.908;35.556;2023-04-28T10:40:29;98860.63;;;12.98;93.25
73338;BME280;61575;49.908;35.556;2023-04-28T10:43:34;98862.31;;;13.06;93.41
73338;BME280;61575;49.908;35.556;2023-04-28T10:46:59;98854.88;;;13.08;94.13
73338;BME280;61575;49.908;35.556;2023-04-28T10:50:07;98857.19;;;13.17;93.04
73338;BME280;61575;49.908;35.556;2023-04-28T10:53:09;98857.78;;;13.13;93.17
73338;BME280;61575;49.908;35.556;2023-04-28T10:59:26;98859.84;;;13.11;93.01
73338;BME280;61575;49.908;35.556;2023-04-28T11:02:39;98855.31;;;13.18;92.83
73338;BME280;61575;49.908;35.556;2023-04-28T11:12:32;98866.94;;;13.25;92.05
73338;BME280;61575;49.908;35.556;2023-04-28T11:15:34;98862.78;;;13.16;91.83
73338;BME280;61575;49.908;35.556;2023-04-28T11:22:01;98858.97;;;12.97;92.99
73338;BME280;61575;49.908;35.556;2023-04-28T11:25:04;98841.13;;;12.90;93.28
73338;BME280;61575;49.908;35.556;2023-04-28T11:28:06;98826.44;;;12.99;93.36
73338;BME280;61575;49.908;35.556;2023-04-28T11:31:13;98819.59;;;13.03;93.15
73338;BME280;61575;49.908;35.556;2023-04-28T11:34:20;98819.59;;;13.03;93.35
73338;BME280;61575;49.908;35.556;2023-04-28T11:37:23;98809.25;;;13.06;93.67
73338;BME280;61575;49.908;35.556;2023-04-28T11:40:25;98794.72;;;13.07;93.71
73338;BME280;61575;49.908;35.556;2023-04-28T11:43:30;98785.81;;;13.07;92.66
73338;BME280;61575;49.908;35.556;2023-04-28T11:50:02;98762.38;;;13.07;93.51
73338;BME280;61575;49.908;35.556;2023-04-28T11:53:04;98767.16;;;13.12;93.15
73338;BME280;61575;49.908;35.556;2023-04-28T11:56:06;98772.34;;;13.07;93.26
73338;BME280;61575;49.908;35.556;2023-04-28T11:59:10;98763.22;;;13.08;93.75
73338;BME280;61575;49.908;35.556;2023-04-28T12:02:12;98773.41;;;13.19;93.45
73338;BME280;61575;49.908;35.556;2023-04-28T12:05:15;98772.38;;;13.20;92.98
73338;BME280;61575;49.908;35.556;2023-04-28T12:08:27;98766.75;;;13.15;92.90
73338;BME280;61575;49.908;35.556;2023-04-28T12:11:29;98765.09;;;13.14;92.71
73338;BME280;61575;49.908;35.556;2023-04-28T12:14:52;98762.19;;;13.09;93.40
73338;BME280;61575;49.908;35.556;2023-04-28T12:17:54;98759.47;;;13.09;92.58
73338;BME280;61575;49.908;35.556;2023-04-28T12:20:56;98758.63;;;13.02;92.50
73338;BME280;61575;49.908;35.556;2023-04-28T12:23:58;98752.59;;;12.93;92.84
73338;BME280;61575;49.908;35.556;2023-04-28T12:27:19;98759.22;;;12.91;93.22
73338;BME280;61575;49.908;35.556;2023-04-28T12:30:26;98764.56;;;12.71;93.26
73338;BME280;61575;49.908;35.556;2023-04-28T12:33:29;98780.94;;;12.76;93.08
73338;BME280;61575;49.908;35.556;2023-04-28T12:36:31;98798.50;;;12.59;93.58
73338;BME280;61575;49.908;35.556;2023-04-28T12:39:34;98804.28;;;12.56;93.69
73338;BME280;61575;49.908;35.556;2023-04-28T12:42:40;98807.34;;;12.46;93.85
73338;BME280;61575;49.908;35.556;2023-04-28T12:45:42;98810.88;;;12.46;93.80
73338;BME280;61575;49.908;35.556;2023-04-28T12:48:44;98791.97;;;12.40;94.03
73338;BME280;61575;49.908;35.556;2023-04-28T12:51:46;98786.75;;;12.32;94.06
73338;BME280;61575;49.908;35.556;2023-04-28T12:54:48;98778.09;;;12.36;94.02
73338;BME280;61575;49.908;35.556;2023-04-28T12:57:50;98780.34;;;12.33;93.99
73338;BME280;61575;49.908;35.556;2023-04-28T13:00:52;98778.47;;;12.33;94.32
73338;BME280;61575;49.908;35.556;2023-04-28T13:03:54;98766.25;;;12.31;94.69
73338;BME280;61575;49.908;35.556;2023-04-28T13:06:57;98753.44;;;12.39;94.03
73338;BME280;61575;49.908;35.556;2023-04-28T13:09:59;98749.72;;;12.40;94.11
73338;BME280;61575;49.908;35.556;2023-04-28T13:13:01;98744.81;;;12.50;93.96
73338;BME280;61575;49.908;35.556;2023-04-28T13:16:03;98740.81;;;12.40;94.08
73338;BME280;61575;49.908;35.556;2023-04-28T13:19:06;98734.44;;;12.47;93.96
73338;BME280;61575;49.908;35.556;2023-04-28T13:22:11;98744.16;;;12.42;93.43
73338;BME280;61575;49.908;35.556;2023-04-28T13:25:13;98744.31;;;12.34;93.72
73338;BME280;61575;49.908;35.556;2023-04-28T13:28:15;98737.69;;;12.36;93.68
73338;BME280;61575;49.908;35.556;2023-04-28T13:31:18;98732.34;;;12.43;93.45
73338;BME280;61575;49.908;35.556;2023-04-28T13:34:20;98729.88;;;12.48;93.43
73338;BME280;61575;49.908;35.556;2023-04-28T13:37:22;98724.91;;;12.45;93.06
73338;BME280;61575;49.908;35.556;2023-04-28T13:40:24;98748.50;;;12.43;92.81
73338;BME280;61575;49.908;35.556;2023-04-28T13:43:26;98749.09;;;12.38;92.70
73338;BME280;61575;49.908;35.556;2023-04-28T13:46:28;98757.34;;;12.30;92.67
73338;BME280;61575;49.908;35.556;2023-04-28T13:49:31;98761.22;;;12.21;92.70
73338;BME280;61575;49.908;35.556;2023-04-28T13:52:33;98770.81;;;12.30;92.94
73338;BME280;61575;49.908;35.556;2023-04-28T13:55:35;98777.78;;;12.18;92.84
73338;BME280;61575;49.908;35.556;2023-04-28T13:58:36;98773.44;;;12.17;92.98
73338;BME280;61575;49.908;35.556;2023-04-28T14:01:38;98755.97;;;12.06;92.80
73338;BME280;61575;49.908;35.556;2023-04-28T14:04:40;98753.59;;;11.97;92.81
73338;BME280;61575;49.908;35.556;2023-04-28T14:07:49;98754.44;;;11.97;92.82
73338;BME280;61575;49.908;35.556;2023-04-28T14:10:52;98760.16;;;11.87;93.56
73338;BME280;61575;49.908;35.556;2023-04-28T14:13:54;98765.53;;;11.87;93.08
73338;BME280;61575;49.908;35.556;2023-04-28T14:16:56;98769.47;;;11.85;93.59
73338;BME280;61575;49.908;35.556;2023-04-28T14:19:59;98759.09;;;11.82;93.51
73338;BME280;61575;49.908;35.556;2023-04-28T14:23:02;98765.25;;;11.76;93.28
73338;BME280;61575;49.908;35.556;2023-04-28T14:26:04;98766.03;;;11.70;92.96
73338;BME280;61575;49.908;35.556;2023-04-28T14:29:07;98754.41;;;11.63;93.37
73338;BME280;61575;49.908;35.556;2023-04-28T14:32:09;98743.78;;;11.54;93.33
73338;BME280;61575;49.908;35.556;2023-04-28T14:35:12;98742.56;;;11.57;93.21
73338;BME280;61575;49.908;35.556;2023-04-28T14:38:14;98742.06;;;11.47;93.67
73338;BME280;61575;49.908;35.556;2023-04-28T14:41:16;98733.94;;;11.40;93.89
73338;BME280;61575;49.908;35.556;2023-04-28T14:44:18;98730.81;;;11.37;93.70
73338;BME280;61575;49.908;35.556;2023-04-28T14:47:20;98729.78;;;11.38;94.11
73338;BME280;61575;49.908;35.556;2023-04-28T14:50:22;98738.00;;;11.30;94.36
73338;BME280;61575;49.908;35.556;2023-04-28T14:53:24;98733.44;;;11.30;94.66
73338;BME280;61575;49.908;35.556;2023-04-28T14:56:26;98740.88;;;11.28;94.73
73338;BME280;61575;49.908;35.556;2023-04-28T14:59:28;98741.91;;;11.27;94.71
73338;BME280;61575;49.908;35.556;2023-04-28T15:02:30;98735.25;;;11.23;94.63
73338;BME280;61575;49.908;35.556;2023-04-28T15:05:32;98746.63;;;11.25;94.51
73338;BME280;61575;49.908;35.556;2023-04-28T15:08:34;98750.16;;;11.26;94.23
73338;BME280;61575;49.908;35.556;2023-04-28T15:11:37;98754.84;;;11.17;95.02
73338;BME280;61575;49.908;35.556;2023-04-28T15:14:39;98757.91;;;11.14;94.76
73338;BME280;61575;49.908;35.556;2023-04-28T15:17:41;98755.16;;;11.07;94.78
73338;BME280;61575;49.908;35.556;2023-04-28T15:20:43;98752.66;;;11.06;94.93
73338;BME280;61575;49.908;35.556;2023-04-28T15:23:46;98761.66;;;10.98;95.31
73338;BME280;61575;49.908;35.556;2023-04-28T15:26:48;98767.31;;;11.03;95.00
73338;BME280;61575;49.908;35.556;2023-04-28T15:29:50;98759.63;;;11.00;95.13
73338;BME280;61575;49.908;35.556;2023-04-28T15:32:52;98752.53;;;10.93;95.14
73338;BME280;61575;49.908;35.556;2023-04-28T15:35:54;98742.41;;;10.95;95.35
73338;BME280;61575;49.908;35.556;2023-04-28T15:38:57;98749.00;;;10.92;95.60
73338;BME280;61575;49.908;35.556;2023-04-28T15:41:58;98736.16;;;10.87;95.84
73338;BME280;61575;49.908;35.556;2023-04-28T15:45:00;98744.41;;;10.86;95.53
73338;BME280;61575;49.908;35.556;2023-04-28T15:48:05;98747.66;;;10.81;95.80
73338;BME280;61575;49.908;35.556;2023-04-28T15:51:08;98739.84;;;10.86;95.47
73338;BME280;61575;49.908;35.556;2023-04-28T15:54:11;98747.91;;;10.86;95.21
73338;BME280;61575;49.908;35.556;2023-04-28T15:57:13;98755.81;;;10.73;95.82
73338;BME280;61575;49.908;35.556;2023-04-28T16:00:15;98750.84;;;10.70;96.01
73338;BME280;61575;49.908;35.556;2023-04-28T16:03:17;98748.78;;;10.72;95.57
73338;BME280;61575;49.908;35.556;2023-04-28T16:06:19;98748.22;;;10.62;96.32
73338;BME280;61575;49.908;35.556;2023-04-28T16:09:21;98751.09;;;10.61;95.95
73338;BME280;61575;49.908;35.556;2023-04-28T16:12:23;98754.44;;;10.63;95.94
73338;BME280;61575;49.908;35.556;2023-04-28T16:15:26;98762.59;;;10.54;95.81